Kilimatinde Airport


Codes: HTKT/
Name: Kilimatinde Airport
City: Kilimatinde
Country: Tanzania
Elevation: 3608 ft.

Photos at Kilimatinde Airport


   Photos courtesy of SpottingLog. You can add your own sightings and photos by signing up for a free trial today.



No photos found.

Weather at Kilimatinde Airport


Time (UTC)DescriptionTempratureWindCloud coverageVisibilityPressureHumidity
23-May-2024 21:00Broken Clouds21°C4 mph, SE75%10000m1016hPa68%
24-May-2024 00:00Broken Clouds20°C4 mph, E83%10000m1015hPa73%
24-May-2024 03:00Overcast Clouds19°C4 mph, E99%10000m1016hPa77%
24-May-2024 06:00Overcast Clouds20°C7 mph, E99%10000m1019hPa73%
24-May-2024 09:00Overcast Clouds27°C7 mph, E88%10000m1016hPa46%
24-May-2024 12:00Broken Clouds28°C9 mph, SE80%10000m1011hPa38%
24-May-2024 15:00Overcast Clouds25°C4 mph, SE92%10000m1013hPa50%
24-May-2024 18:00Overcast Clouds23°C2 mph, E87%10000m1014hPa55%
24-May-2024 21:00Broken Clouds19°C4 mph, SE52%10000m1015hPa72%
25-May-2024 00:00Scattered Clouds17°C2 mph, E32%10000m1015hPa84%
25-May-2024 03:00Few Clouds16°C2 mph, SE21%10000m1017hPa89%
25-May-2024 06:00Scattered Clouds21°C7 mph, SE46%10000m1018hPa63%
25-May-2024 09:00Scattered Clouds27°C7 mph, SE35%10000m1016hPa42%
25-May-2024 12:00Broken Clouds29°C4 mph, SE52%10000m1011hPa34%
25-May-2024 15:00Broken Clouds26°C2 mph, S74%10000m1012hPa42%
25-May-2024 18:00Broken Clouds24°C2 mph, SE83%10000m1014hPa46%
25-May-2024 21:00Overcast Clouds20°C4 mph, E94%10000m1016hPa69%
26-May-2024 00:00Overcast Clouds19°C4 mph, SE95%10000m1015hPa76%
26-May-2024 03:00Broken Clouds17°C2 mph, SE80%10000m1017hPa85%
26-May-2024 06:00Broken Clouds21°C7 mph, SE74%10000m1018hPa66%
26-May-2024 09:00Broken Clouds27°C7 mph, SE53%10000m1016hPa43%
26-May-2024 12:00Scattered Clouds30°C4 mph, SE35%10000m1012hPa36%
26-May-2024 15:00Broken Clouds26°C2 mph, SE83%10000m1012hPa44%
26-May-2024 18:00Overcast Clouds25°C4 mph, E91%10000m1015hPa46%
26-May-2024 21:00Overcast Clouds22°C4 mph, SE100%10000m1016hPa61%
27-May-2024 00:00Overcast Clouds20°C4 mph, SE99%10000m1016hPa69%
27-May-2024 03:00Broken Clouds18°C2 mph, SE75%10000m1018hPa77%
27-May-2024 06:00Broken Clouds22°C7 mph, E73%10000m1019hPa60%
27-May-2024 09:00Scattered Clouds27°C7 mph, SE36%10000m1016hPa41%
27-May-2024 12:00Broken Clouds30°C4 mph, SE53%10000m1012hPa34%
27-May-2024 15:00Overcast Clouds27°C4 mph, SE100%10000m1013hPa43%
27-May-2024 18:00Overcast Clouds24°C7 mph, E100%10000m1016hPa48%
27-May-2024 21:00Overcast Clouds21°C7 mph, E100%10000m1017hPa65%
28-May-2024 00:00Overcast Clouds18°C4 mph, SE97%10000m1017hPa78%
28-May-2024 03:00Broken Clouds17°C2 mph, E82%10000m1019hPa84%
28-May-2024 06:00Broken Clouds21°C9 mph, E66%10000m1020hPa62%
28-May-2024 09:00Broken Clouds27°C7 mph, SE82%10000m1017hPa44%
28-May-2024 12:00Broken Clouds29°C7 mph, SE67%10000m1013hPa37%
28-May-2024 15:00Overcast Clouds27°C4 mph, SE90%10000m1013hPa45%
28-May-2024 18:00Overcast Clouds23°C7 mph, E86%10000m1016hPa52%